Time;durP1;ratioP1;P1;durP2;ratioP2;P2;SDS_P1;SDS_P2;PMS_P1;PMS_P2;Temp;Humidity;BMP_temperature;BMP_pressure;BME280_temperature;BME280_humidity;BME280_pressure;Samples;Min_cycle;Max_cycle;Signal;HPM_P1;HPM_P2
2022/10/18 00:02:15;;;;;;;;;;;;;;;8.77;64.21;101438.25;4972670;28;19914;-85
2022/10/18 00:04:41;;;;;;;;;;;;;;;8.88;63.81;101438.44;4970902;28;20344;-84
2022/10/18 00:07:06;;;;;;;;;;;;;;;8.92;64.35;101431.50;4982466;28;19964;-84
2022/10/18 00:09:32;;;;;;;;;;;;;;;8.78;64.23;101429.47;4992010;28;20877;-85
2022/10/18 00:11:58;;;;;;;;;;;;;;;8.87;64.51;101426.13;4974434;28;19933;-85
2022/10/18 00:14:23;;;;;;;;;;;;;;;8.92;63.42;101423.59;4990644;28;19924;-84
2022/10/18 00:16:48;;;;;;;;;;;;;;;9.13;63.04;101412.59;4991581;28;19914;-85
2022/10/18 00:19:13;;;;;;;;;;;;;;;9.23;62.67;101414.53;4992300;28;19987;-87
2022/10/18 00:21:39;;;;;;;;;;;;;;;9.04;62.74;101415.94;4992069;28;20431;-85
2022/10/18 00:24:04;;;;;;;;;;;;;;;9.21;62.64;101415.38;4991840;28;19914;-85
2022/10/18 00:26:30;;;;;;;;;;;;;;;9.30;61.95;101423.44;4991585;28;20384;-85
2022/10/18 00:29:00;;;;;;;;;;;;;;;9.37;61.60;101405.97;4991512;28;20396;-84
2022/10/18 00:31:26;;;;;;;;;;;;;;;9.22;61.98;101410.13;4991618;28;20343;-85
2022/10/18 00:33:52;;;;;;;;;;;;;;;9.12;61.22;101416.94;4992221;28;19917;-85
2022/10/18 00:36:18;;;;;;;;;;;;;;;9.03;62.19;101416.78;4991120;28;20016;-86
2022/10/18 00:38:43;;;;;;;;;;;;;;;8.95;62.05;101421.91;4991937;28;20024;-85
2022/10/18 00:41:10;;;;;;;;;;;;;;;8.72;62.85;101410.06;4991933;28;19971;-86
2022/10/18 00:43:51;;;;;;;;;;;;;;;8.76;62.17;101411.91;4990619;28;20021;-86
2022/10/18 00:46:16;;;;;;;;;;;;;;;8.80;62.96;101408.44;4991273;28;20055;-86
2022/10/18 00:48:42;;;;;;;;;;;;;;;8.91;62.57;101417.47;4991804;28;19945;-85
2022/10/18 00:51:07;;;;;;;;;;;;;;;8.91;62.31;101411.28;4991926;28;20416;-85
2022/10/18 00:53:33;;;;;;;;;;;;;;;8.85;62.94;101412.06;4991633;28;19921;-85
2022/10/18 00:55:58;;;;;;;;;;;;;;;8.95;62.98;101402.59;4991211;28;19914;-85
2022/10/18 00:58:23;;;;;;;;;;;;;;;9.00;62.16;101400.94;4991858;28;19949;-88
2022/10/18 01:00:49;;;;;;;;;;;;;;;8.93;62.46;101407.84;4991190;28;19925;-85
2022/10/18 01:03:14;;;;;;;;;;;;;;;9.02;61.95;101396.59;4992555;28;20384;-86
2022/10/18 01:05:42;;;;;;;;;;;;;;;8.89;61.91;101395.47;4995277;28;19917;-85
2022/10/18 01:08:18;;;;;;;;;;;;;;;8.96;62.49;101385.97;4977422;28;19917;-85
2022/10/18 01:11:02;;;;;;;;;;;;;;;8.96;61.95;101384.22;4995616;28;19968;-85
2022/10/18 01:13:32;;;;;;;;;;;;;;;8.89;61.72;101392.84;4993837;28;19918;-85
2022/10/18 01:15:58;;;;;;;;;;;;;;;8.67;62.43;101388.91;4977096;28;20110;-85
2022/10/18 01:18:36;;;;;;;;;;;;;;;8.65;63.19;101393.25;4995185;28;19917;-85
2022/10/18 01:21:19;;;;;;;;;;;;;;;8.62;62.66;101392.28;4995117;28;19920;-85
2022/10/18 01:23:54;;;;;;;;;;;;;;;8.67;62.82;101390.66;4994967;28;20431;-85
2022/10/18 01:26:37;;;;;;;;;;;;;;;8.74;62.63;101390.81;4990991;28;19914;-86
2022/10/18 01:29:32;;;;;;;;;;;;;;;8.75;62.55;101397.84;4975078;28;19934;-84
2022/10/18 01:32:00;;;;;;;;;;;;;;;8.79;61.89;101385.66;4920348;29;19923;-85
2022/10/18 01:34:27;;;;;;;;;;;;;;;8.08;63.01;101394.66;4956073;28;19914;-85
2022/10/18 01:36:54;;;;;;;;;;;;;;;7.95;63.76;101392.59;4943715;28;20305;-83
2022/10/18 01:39:28;;;;;;;;;;;;;;;8.10;63.93;101398.19;4974509;28;19913;-85
2022/10/18 01:41:55;;;;;;;;;;;;;;;7.97;64.56;101389.16;4995043;28;19914;-83
2022/10/18 01:44:22;;;;;;;;;;;;;;;8.01;64.22;101392.72;4977062;28;20372;-85
2022/10/18 01:46:48;;;;;;;;;;;;;;;7.64;65.46;101395.38;4994392;28;19917;-84
2022/10/18 01:49:14;;;;;;;;;;;;;;;7.69;65.66;101385.91;4993832;28;20410;-85
2022/10/18 01:51:39;;;;;;;;;;;;;;;7.60;65.72;101384.75;4994352;28;20803;-85
2022/10/18 01:54:04;;;;;;;;;;;;;;;7.80;65.48;101388.78;4994398;28;20384;-83
2022/10/18 01:56:40;;;;;;;;;;;;;;;7.78;65.29;101387.81;4994264;28;19920;-83
2022/10/18 01:59:24;;;;;;;;;;;;;;;7.89;65.04;101390.69;4992250;28;20471;-83
2022/10/18 02:01:52;;;;;;;;;;;;;;;8.15;64.33;101379.91;4994073;28;19913;-83
2022/10/18 02:04:17;;;;;;;;;;;;;;;8.25;63.82;101379.25;4986243;28;19918;-83
2022/10/18 02:06:44;;;;;;;;;;;;;;;8.23;63.73;101378.31;4974717;28;20005;-83
2022/10/18 02:09:18;;;;;;;;;;;;;;;8.17;63.63;101393.94;4974721;28;19914;-84
2022/10/18 02:11:45;;;;;;;;;;;;;;;8.12;63.92;101375.44;4974747;28;19914;-84
2022/10/18 02:14:13;;;;;;;;;;;;;;;8.10;63.85;101374.53;4973250;28;20408;-85
2022/10/18 02:16:58;;;;;;;;;;;;;;;8.04;63.86;101374.41;4974266;28;19973;-83
2022/10/18 02:19:27;;;;;;;;;;;;;;;7.93;64.31;101368.91;4974206;28;20053;-84
2022/10/18 02:21:53;;;;;;;;;;;;;;;8.04;63.99;101372.66;4974202;28;19918;-84
2022/10/18 02:24:20;;;;;;;;;;;;;;;8.08;63.80;101368.38;4974337;28;19925;-83
2022/10/18 02:26:45;;;;;;;;;;;;;;;8.17;63.76;101363.31;4974433;28;19914;-85
2022/10/18 02:29:11;;;;;;;;;;;;;;;8.14;63.71;101373.78;4973973;28;19918;-84
2022/10/18 02:31:42;;;;;;;;;;;;;;;8.18;63.29;101369.44;4974156;28;20436;-84
2022/10/18 02:34:07;;;;;;;;;;;;;;;8.09;63.03;101367.50;4989253;28;20384;-85
2022/10/18 02:36:44;;;;;;;;;;;;;;;7.89;63.51;101365.34;4974081;28;19921;-84
2022/10/18 02:39:24;;;;;;;;;;;;;;;7.91;63.73;101369.72;4977020;28;20000;-85
2022/10/18 02:41:49;;;;;;;;;;;;;;;8.02;63.75;101374.38;4993202;28;19920;-84
2022/10/18 02:44:14;;;;;;;;;;;;;;;8.06;62.85;101373.59;4975741;28;19914;-84
2022/10/18 02:46:40;;;;;;;;;;;;;;;8.01;63.11;101371.72;4993150;28;19914;-84
2022/10/18 02:49:05;;;;;;;;;;;;;;;7.93;63.46;101368.91;4991336;28;20000;-83
2022/10/18 02:51:31;;;;;;;;;;;;;;;7.97;63.53;101372.47;4993208;28;19925;-84
2022/10/18 02:53:56;;;;;;;;;;;;;;;7.95;63.43;101374.19;4992819;28;19913;-84
2022/10/18 02:56:21;;;;;;;;;;;;;;;7.87;63.46;101374.91;4988587;28;19918;-84
2022/10/18 02:58:47;;;;;;;;;;;;;;;7.84;63.99;101376.59;4973771;28;19914;-85
2022/10/18 03:01:12;;;;;;;;;;;;;;;7.77;63.82;101382.53;4973177;28;19921;-84
2022/10/18 03:03:37;;;;;;;;;;;;;;;7.80;63.53;101383.53;4992786;28;19964;-82
2022/10/18 03:06:03;;;;;;;;;;;;;;;7.55;63.68;101394.28;4993154;28;19914;-85
2022/10/18 03:08:28;;;;;;;;;;;;;;;7.40;65.00;101402.66;4982325;28;19926;-84
2022/10/18 03:10:53;;;;;;;;;;;;;;;7.35;64.78;101397.28;4973537;28;20300;-84
2022/10/18 03:13:19;;;;;;;;;;;;;;;7.41;64.74;101393.94;4973473;28;19918;-85
2022/10/18 03:15:45;;;;;;;;;;;;;;;7.52;64.78;101397.72;4973273;28;19914;-85
2022/10/18 03:18:10;;;;;;;;;;;;;;;7.54;64.10;101398.66;4973398;28;19918;-83
2022/10/18 03:20:35;;;;;;;;;;;;;;;7.53;64.10;101396.88;4973326;28;19914;-83
2022/10/18 03:23:02;;;;;;;;;;;;;;;7.53;63.25;101391.63;4972111;28;20014;-81
2022/10/18 03:25:27;;;;;;;;;;;;;;;7.61;63.57;101392.69;4972480;28;19922;-85
2022/10/18 03:27:52;;;;;;;;;;;;;;;7.44;63.53;101396.63;4955963;28;19977;-82
2022/10/18 03:30:18;;;;;;;;;;;;;;;7.49;63.79;101400.25;4972796;28;19922;-82
2022/10/18 03:32:43;;;;;;;;;;;;;;;7.49;63.84;101400.25;4973131;28;19914;-83
2022/10/18 03:35:08;;;;;;;;;;;;;;;7.47;63.15;101399.34;4971371;28;20011;-82
2022/10/18 03:37:34;;;;;;;;;;;;;;;7.31;64.23;101387.56;4972593;28;20323;-82
2022/10/18 03:39:59;;;;;;;;;;;;;;;7.27;64.48;101391.84;4972892;28;20027;-83
2022/10/18 03:42:25;;;;;;;;;;;;;;;7.15;64.84;101396.78;4972753;28;19914;-82
2022/10/18 03:44:50;;;;;;;;;;;;;;;7.26;64.25;101397.97;4971378;28;19914;-83
2022/10/18 03:47:15;;;;;;;;;;;;;;;7.22;64.60;101395.22;4972835;28;20004;-82
2022/10/18 03:49:41;;;;;;;;;;;;;;;7.29;64.70;101394.50;4972344;28;20347;-81
2022/10/18 03:52:06;;;;;;;;;;;;;;;7.15;65.17;101400.31;4955363;28;19918;-83
2022/10/18 03:54:31;;;;;;;;;;;;;;;7.08;65.38;101397.47;4953273;29;19914;-82
2022/10/18 03:56:57;;;;;;;;;;;;;;;7.03;66.14;101396.44;4968998;28;19913;-83
2022/10/18 03:59:22;;;;;;;;;;;;;;;7.01;65.72;101398.16;4963018;28;20395;-84
2022/10/18 04:01:48;;;;;;;;;;;;;;;6.97;65.91;101398.06;4976420;28;20013;-83
2022/10/18 04:04:13;;;;;;;;;;;;;;;7.07;65.11;101396.56;4991937;28;19910;-83
2022/10/18 04:06:39;;;;;;;;;;;;;;;6.94;65.26;101398.00;4991617;28;20376;-83
2022/10/18 04:09:04;;;;;;;;;;;;;;;6.85;65.00;101402.97;4987312;28;20375;-83
2022/10/18 04:11:30;;;;;;;;;;;;;;;6.78;65.86;101399.31;4969769;28;19976;-85
2022/10/18 04:13:55;;;;;;;;;;;;;;;6.93;65.34;101390.06;4969452;28;19954;-86
2022/10/18 04:16:20;;;;;;;;;;;;;;;6.75;65.52;101396.59;4969823;28;19914;-82
2022/10/18 04:18:45;;;;;;;;;;;;;;;6.77;65.50;101394.91;4971818;28;19953;-83
2022/10/18 04:21:11;;;;;;;;;;;;;;;6.72;65.25;101398.22;4969640;28;20297;-82
2022/10/18 04:23:36;;;;;;;;;;;;;;;6.43;65.86;101375.59;4969154;28;20365;-82
2022/10/18 04:26:01;;;;;;;;;;;;;;;6.57;65.93;101388.22;4969350;28;19918;-80
2022/10/18 04:28:27;;;;;;;;;;;;;;;6.67;65.70;101391.97;4971566;28;19918;-80
2022/10/18 04:30:52;;;;;;;;;;;;;;;6.36;65.92;101391.09;4970835;28;20415;-81
2022/10/18 04:33:18;;;;;;;;;;;;;;;6.24;67.01;101394.25;4981070;28;20033;-81
2022/10/18 04:35:43;;;;;;;;;;;;;;;6.39;67.07;101388.56;4991148;28;20004;-82
2022/10/18 04:38:09;;;;;;;;;;;;;;;6.54;67.06;101399.50;4985973;28;19925;-80
2022/10/18 04:40:34;;;;;;;;;;;;;;;6.70;66.62;101402.56;4981323;28;19925;-82
2022/10/18 04:42:59;;;;;;;;;;;;;;;6.73;66.12;101400.91;4995012;28;19976;-84
2022/10/18 04:45:25;;;;;;;;;;;;;;;6.80;66.02;101405.47;4996952;28;19987;-85
2022/10/18 04:47:50;;;;;;;;;;;;;;;6.66;66.53;101393.72;4992777;28;19956;-81
2022/10/18 04:50:15;;;;;;;;;;;;;;;6.69;66.19;101401.69;4986183;28;19914;-81
2022/10/18 04:52:41;;;;;;;;;;;;;;;6.77;65.93;101394.91;4975951;28;19914;-83
2022/10/18 04:55:06;;;;;;;;;;;;;;;6.83;66.16;101404.69;4953785;28;19940;-82
2022/10/18 04:57:31;;;;;;;;;;;;;;;6.82;66.13;101397.66;4976742;28;20008;-80
2022/10/18 04:59:57;;;;;;;;;;;;;;;6.68;66.33;101397.28;4975813;28;19918;-80
2022/10/18 05:02:22;;;;;;;;;;;;;;;6.74;66.44;101396.56;4975242;28;20372;-80
2022/10/18 05:04:47;;;;;;;;;;;;;;;6.82;66.16;101403.78;4975020;28;19997;-81
2022/10/18 05:07:12;;;;;;;;;;;;;;;7.01;65.81;101400.78;4975991;28;20011;-81
2022/10/18 05:09:38;;;;;;;;;;;;;;;6.95;65.64;101397.16;4990689;28;19918;-81
2022/10/18 05:12:03;;;;;;;;;;;;;;;7.06;65.46;101392.19;4980483;28;19918;-84
2022/10/18 05:14:28;;;;;;;;;;;;;;;7.01;65.51;101401.66;4975221;28;20008;-82
2022/10/18 05:16:54;;;;;;;;;;;;;;;7.02;65.58;101392.94;4977317;28;19986;-85
2022/10/18 05:19:19;;;;;;;;;;;;;;;7.14;66.13;101401.16;4974814;28;19921;-83
2022/10/18 05:21:44;;;;;;;;;;;;;;;7.09;65.43;101399.22;4973254;28;19918;-81
2022/10/18 05:24:10;;;;;;;;;;;;;;;7.44;66.84;101405.41;4974130;28;19918;-80
2022/10/18 05:26:36;;;;;;;;;;;;;;;7.51;66.71;101404.72;4972979;28;19921;-83
2022/10/18 05:29:01;;;;;;;;;;;;;;;7.58;66.87;101407.50;4974574;28;19969;-80
2022/10/18 05:31:26;;;;;;;;;;;;;;;7.91;67.03;101399.53;4988228;28;19913;-81
2022/10/18 05:33:51;;;;;;;;;;;;;;;8.20;66.82;101399.28;4992681;28;20289;-81
2022/10/18 05:36:17;;;;;;;;;;;;;;;8.40;65.76;101399.72;4992938;28;19937;-81
2022/10/18 05:38:44;;;;;;;;;;;;;;;8.51;65.12;101397.34;4991081;28;19925;-81
2022/10/18 05:41:09;;;;;;;;;;;;;;;8.83;64.55;101399.72;4977509;28;19918;-81
2022/10/18 05:43:34;;;;;;;;;;;;;;;8.87;62.79;101389.28;4974035;28;19972;-82
2022/10/18 05:46:00;;;;;;;;;;;;;;;8.92;62.43;101394.66;4974277;28;19914;-82
2022/10/18 05:48:25;;;;;;;;;;;;;;;9.01;61.76;101383.41;4973114;28;19965;-81
2022/10/18 05:50:50;;;;;;;;;;;;;;;8.89;60.92;101381.44;4973259;28;20379;-81
2022/10/18 05:53:16;;;;;;;;;;;;;;;9.05;60.48;101388.75;4974047;28;19917;-82
2022/10/18 05:55:41;;;;;;;;;;;;;;;9.32;60.88;101396.25;4974421;28;19914;-83
2022/10/18 05:58:06;;;;;;;;;;;;;;;9.36;60.40;101393.66;4992592;28;19911;-81
2022/10/18 06:00:32;;;;;;;;;;;;;;;9.44;60.07;101395.56;4994137;28;20435;-82
2022/10/18 06:02:57;;;;;;;;;;;;;;;9.70;60.90;101387.22;4994167;28;19923;-81
2022/10/18 06:05:23;;;;;;;;;;;;;;;10.18;58.86;101390.56;4992417;28;19925;-82
2022/10/18 06:07:48;;;;;;;;;;;;;;;10.15;58.36;101396.66;4993599;28;20364;-82
2022/10/18 06:10:13;;;;;;;;;;;;;;;10.23;58.50;101396.75;4992719;28;20340;-82
2022/10/18 06:12:38;;;;;;;;;;;;;;;10.38;57.36;101385.56;4986360;28;19918;-82
2022/10/18 06:15:04;;;;;;;;;;;;;;;10.35;57.12;101390.81;4974318;28;20408;-82
2022/10/18 06:17:29;;;;;;;;;;;;;;;10.62;56.89;101402.56;4974559;28;19949;-81
2022/10/18 06:19:56;;;;;;;;;;;;;;;10.73;56.39;101403.56;4974434;28;20309;-81
2022/10/18 06:22:21;;;;;;;;;;;;;;;10.82;57.22;101398.38;4980133;28;19917;-82
2022/10/18 06:24:46;;;;;;;;;;;;;;;11.16;56.02;101390.81;4976485;28;19918;-82
2022/10/18 06:27:12;;;;;;;;;;;;;;;11.26;56.00;101394.44;4974612;28;19983;-82
2022/10/18 06:29:38;;;;;;;;;;;;;;;11.75;54.65;101401.88;4974131;28;19972;-83
2022/10/18 06:32:04;;;;;;;;;;;;;;;11.59;55.27;101399.13;4974185;28;19921;-81
2022/10/18 06:34:30;;;;;;;;;;;;;;;11.41;54.95;101399.84;4974171;28;19910;-81
2022/10/18 06:36:55;;;;;;;;;;;;;;;11.66;55.18;101400.06;4973874;28;20006;-82
2022/10/18 06:39:20;;;;;;;;;;;;;;;12.05;54.24;101398.59;4974380;28;20323;-82
2022/10/18 06:41:46;;;;;;;;;;;;;;;12.30;53.91;101404.91;4973866;28;20403;-82
2022/10/18 06:44:14;;;;;;;;;;;;;;;12.81;52.73;101407.78;4974234;28;19914;-83
2022/10/18 06:46:39;;;;;;;;;;;;;;;12.70;52.46;101396.28;4973938;28;19914;-83
2022/10/18 06:49:05;;;;;;;;;;;;;;;12.70;52.13;101401.56;4956469;28;20369;-81
2022/10/18 06:51:30;;;;;;;;;;;;;;;12.81;51.56;101394.53;4973659;28;19914;-82
2022/10/18 06:53:55;;;;;;;;;;;;;;;12.57;51.17;101402.38;4973840;28;19914;-81
2022/10/18 06:56:21;;;;;;;;;;;;;;;12.70;52.00;101405.09;4973616;28;19914;-81
2022/10/18 06:58:46;;;;;;;;;;;;;;;12.69;51.42;101397.13;4973763;28;19914;-81
2022/10/18 07:01:14;;;;;;;;;;;;;;;13.09;52.94;101397.25;4973207;28;19914;-82
2022/10/18 07:03:39;;;;;;;;;;;;;;;13.26;50.84;101400.78;4973600;28;19914;-82
2022/10/18 07:06:06;;;;;;;;;;;;;;;13.15;50.81;101396.38;4973559;28;20316;-83
2022/10/18 07:08:31;;;;;;;;;;;;;;;13.59;51.50;101392.88;4973595;28;20376;-83
2022/10/18 07:10:57;;;;;;;;;;;;;;;13.42;50.84;101384.94;4973658;28;20060;-82
2022/10/18 07:13:23;;;;;;;;;;;;;;;13.42;50.76;101380.53;4973743;28;19913;-82
2022/10/18 07:15:48;;;;;;;;;;;;;;;13.59;50.27;101374.31;4973571;28;19969;-82
2022/10/18 07:18:13;;;;;;;;;;;;;;;13.50;50.09;101369.03;4973920;28;19945;-81
2022/10/18 07:20:39;;;;;;;;;;;;;;;13.85;49.94;101362.81;4974663;28;19914;-81
2022/10/18 07:23:07;;;;;;;;;;;;;;;13.77;48.73;101370.78;4973886;28;19956;-81
2022/10/18 07:25:32;;;;;;;;;;;;;;;13.99;47.58;101368.94;4973952;28;19929;-83
2022/10/18 07:27:57;;;;;;;;;;;;;;;13.87;48.47;101361.94;4973374;28;19918;-82
2022/10/18 07:30:23;;;;;;;;;;;;;;;13.82;48.95;101365.47;4972962;28;19921;-83
2022/10/18 07:32:50;;;;;;;;;;;;;;;13.95;48.62;101369.88;4973498;28;20351;-83
2022/10/18 07:35:15;;;;;;;;;;;;;;;14.20;48.19;101357.41;4955685;28;20028;-84
2022/10/18 07:37:40;;;;;;;;;;;;;;;14.18;47.73;101358.28;4973045;28;19964;-83
2022/10/18 07:40:06;;;;;;;;;;;;;;;13.90;47.63;101355.72;4973109;28;19914;-82
2022/10/18 07:42:33;;;;;;;;;;;;;;;14.04;47.62;101345.06;4972954;28;20001;-82
2022/10/18 07:44:58;;;;;;;;;;;;;;;14.31;47.53;101350.28;4972486;28;20416;-83
2022/10/18 07:47:24;;;;;;;;;;;;;;;14.69;46.58;101345.72;4972871;28;19965;-83
2022/10/18 07:49:49;;;;;;;;;;;;;;;14.77;45.18;101343.88;4972815;28;19960;-85
2022/10/18 07:52:14;;;;;;;;;;;;;;;14.44;45.55;101332.53;4972632;28;20301;-82
2022/10/18 07:54:39;;;;;;;;;;;;;;;14.47;46.58;101331.63;4972922;28;19977;-82
2022/10/18 07:57:05;;;;;;;;;;;;;;;14.90;45.69;101335.84;4972799;28;20032;-82
2022/10/18 07:59:30;;;;;;;;;;;;;;;14.75;44.96;101326.19;4972637;28;19914;-83
2022/10/18 08:01:55;;;;;;;;;;;;;;;15.00;47.44;101329.59;4973049;28;20341;-83
2022/10/18 08:04:21;;;;;;;;;;;;;;;15.36;44.84;101327.50;4972547;28;19917;-83
2022/10/18 08:06:46;;;;;;;;;;;;;;;15.52;45.13;101321.16;4954969;28;19968;-83
2022/10/18 08:09:11;;;;;;;;;;;;;;;15.71;43.13;101320.97;4972943;28;19914;-83
2022/10/18 08:11:37;;;;;;;;;;;;;;;15.06;43.98;101312.69;4972456;28;19972;-84
2022/10/18 08:14:02;;;;;;;;;;;;;;;15.31;45.68;101305.41;4972195;28;19914;-84
2022/10/18 08:16:30;;;;;;;;;;;;;;;15.50;44.23;101301.66;4972622;28;19918;-84
2022/10/18 08:18:56;;;;;;;;;;;;;;;15.64;43.84;101298.88;4972463;28;19914;-84
2022/10/18 08:21:22;;;;;;;;;;;;;;;15.90;43.58;101297.75;4955348;28;19918;-84
2022/10/18 08:23:47;;;;;;;;;;;;;;;15.67;43.29;101289.97;4972717;28;19971;-84
2022/10/18 08:26:14;;;;;;;;;;;;;;;16.08;45.17;101292.19;4972376;28;19937;-84
2022/10/18 08:28:39;;;;;;;;;;;;;;;16.23;42.75;101291.09;4972231;28;19952;-84
2022/10/18 08:31:05;;;;;;;;;;;;;;;16.17;42.45;101282.31;4955213;28;19957;-84
2022/10/18 08:33:31;;;;;;;;;;;;;;;15.96;43.65;101286.13;4972261;28;19914;-84
2022/10/18 08:35:58;;;;;;;;;;;;;;;16.18;42.72;101269.00;4972206;28;19914;-84
2022/10/18 08:38:23;;;;;;;;;;;;;;;16.62;42.12;101270.16;4972377;28;19964;-84
2022/10/18 08:40:49;;;;;;;;;;;;;;;16.29;42.39;101267.06;4972454;28;20372;-84
2022/10/18 08:43:17;;;;;;;;;;;;;;;16.22;42.54;101262.72;4972700;28;19914;-84
2022/10/18 08:45:43;;;;;;;;;;;;;;;16.39;42.70;101259.84;4971996;28;19914;-84
2022/10/18 08:48:34;;;;;;;;;;;;;;;16.35;44.36;101260.78;4972291;28;19921;-84
2022/10/18 08:51:00;;;;;;;;;;;;;;;16.71;45.47;101250.47;4969230;28;19910;-84
2022/10/18 08:53:32;;;;;;;;;;;;;;;16.96;44.86;101253.66;4972327;28;19937;-84
2022/10/18 08:56:10;;;;;;;;;;;;;;;17.24;44.16;101249.63;4971494;28;19918;-84
2022/10/18 08:58:35;;;;;;;;;;;;;;;17.44;43.38;101241.25;4966997;28;19922;-83
2022/10/18 09:01:00;;;;;;;;;;;;;;;17.61;41.53;101244.50;4972144;28;20289;-84
2022/10/18 09:03:37;;;;;;;;;;;;;;;17.46;41.34;101235.00;4969529;28;19918;-83
2022/10/18 09:06:20;;;;;;;;;;;;;;;17.41;42.00;101235.97;4969853;28;19972;-84
2022/10/18 09:08:51;;;;;;;;;;;;;;;17.50;42.01;101234.03;4968827;28;19960;-84
2022/10/18 09:11:36;;;;;;;;;;;;;;;17.56;41.94;101226.81;4965922;28;19922;-84
2022/10/18 09:14:27;;;;;;;;;;;;;;;16.88;43.38;101220.91;4968584;28;19918;-84
2022/10/18 09:17:01;;;;;;;;;;;;;;;16.75;44.15;101232.66;4970229;28;19918;-84
2022/10/18 09:19:54;;;;;;;;;;;;;;;17.28;42.79;101217.53;4969835;28;20020;-83
2022/10/18 09:22:23;;;;;;;;;;;;;;;17.60;42.30;101217.84;4969432;28;19914;-84
2022/10/18 09:24:58;;;;;;;;;;;;;;;17.61;42.82;101220.50;4973497;28;19914;-83
2022/10/18 09:27:30;;;;;;;;;;;;;;;17.77;42.23;101206.84;4970291;28;19918;-84
2022/10/18 09:30:01;;;;;;;;;;;;;;;17.34;43.03;101205.88;4973354;28;19925;-84
2022/10/18 09:32:32;;;;;;;;;;;;;;;17.50;43.00;101201.13;4969843;28;19953;-84
2022/10/18 09:35:05;;;;;;;;;;;;;;;17.17;43.60;101195.53;4973048;28;19921;-85
2022/10/18 09:37:33;;;;;;;;;;;;;;;17.23;44.27;101189.22;4971127;28;20013;-85
2022/10/18 09:40:16;;;;;;;;;;;;;;;17.27;43.36;101181.13;4971733;28;19918;-85
2022/10/18 09:42:48;;;;;;;;;;;;;;;17.59;42.45;101176.06;4974036;28;20044;-83
2022/10/18 09:45:13;;;;;;;;;;;;;;;17.65;42.54;101173.28;4974275;28;20000;-83
2022/10/18 09:47:44;;;;;;;;;;;;;;;17.74;42.24;101172.22;4974171;28;20045;-84
2022/10/18 09:50:15;;;;;;;;;;;;;;;18.04;41.87;101163.56;4974558;28;19921;-83
2022/10/18 09:52:44;;;;;;;;;;;;;;;18.21;42.34;101162.28;4974739;28;19993;-82
2022/10/18 09:55:25;;;;;;;;;;;;;;;18.20;42.11;101160.53;4970424;28;19918;-83
2022/10/18 09:57:53;;;;;;;;;;;;;;;18.08;43.09;101161.69;4972654;28;19913;-85
2022/10/18 10:00:30;;;;;;;;;;;;;;;17.96;42.42;101152.16;4972917;28;20404;-84
2022/10/18 10:02:57;;;;;;;;;;;;;;;17.88;42.64;101146.09;4974863;28;20004;-83
2022/10/18 10:05:22;;;;;;;;;;;;;;;18.15;42.38;101139.28;4972286;28;19925;-84
2022/10/18 10:07:48;;;;;;;;;;;;;;;18.07;42.27;101139.47;4975204;28;19918;-83
2022/10/18 10:10:19;;;;;;;;;;;;;;;17.93;42.19;101130.88;4973754;28;19977;-85
2022/10/18 10:12:45;;;;;;;;;;;;;;;18.21;42.11;101125.78;4974308;28;19957;-84
2022/10/18 10:15:19;;;;;;;;;;;;;;;18.35;40.73;101113.88;4974478;28;19976;-84
2022/10/18 10:17:59;;;;;;;;;;;;;;;18.17;41.07;101112.53;4974508;28;19914;-84
2022/10/18 10:20:32;;;;;;;;;;;;;;;18.14;41.13;101108.13;4974358;28;19914;-85
2022/10/18 10:23:04;;;;;;;;;;;;;;;18.16;41.07;101105.44;4973908;28;20389;-83
2022/10/18 10:25:31;;;;;;;;;;;;;;;18.16;41.54;101087.59;4973835;28;20012;-84
2022/10/18 10:28:05;;;;;;;;;;;;;;;18.42;41.22;101081.63;4973788;28;19914;-83
2022/10/18 10:30:32;;;;;;;;;;;;;;;18.69;40.70;101073.81;4973603;28;20006;-85
2022/10/18 10:32:57;;;;;;;;;;;;;;;18.60;41.12;101076.72;4973981;28;19918;-85
2022/10/18 10:35:32;;;;;;;;;;;;;;;18.58;40.68;101071.44;4973250;28;19967;-84
2022/10/18 10:37:57;;;;;;;;;;;;;;;18.41;40.68;101057.63;4974275;28;19914;-84
2022/10/18 10:40:25;;;;;;;;;;;;;;;18.30;39.90;101057.88;4974273;28;20139;-84
2022/10/18 10:43:00;;;;;;;;;;;;;;;18.20;40.25;101043.03;4974294;28;19913;-85
2022/10/18 10:45:26;;;;;;;;;;;;;;;18.60;40.17;101037.50;4974131;28;19914;-84
2022/10/18 10:47:52;;;;;;;;;;;;;;;18.87;39.80;101026.13;4974128;28;19914;-82
2022/10/18 10:50:25;;;;;;;;;;;;;;;18.98;38.60;101026.69;4973774;28;20423;-83
2022/10/18 10:52:51;;;;;;;;;;;;;;;18.95;38.92;101017.00;4974124;28;20384;-82
2022/10/18 10:55:26;;;;;;;;;;;;;;;18.95;38.72;101010.75;4973750;28;19921;-83
2022/10/18 10:57:52;;;;;;;;;;;;;;;19.09;37.90;101005.00;4973887;28;20372;-82
2022/10/18 11:00:36;;;;;;;;;;;;;;;19.29;37.02;100997.28;4973697;28;19968;-82
2022/10/18 11:03:09;;;;;;;;;;;;;;;19.39;36.71;100987.16;4972587;28;19937;-84
2022/10/18 11:05:41;;;;;;;;;;;;;;;19.37;36.87;100986.34;4973490;28;19914;-83
2022/10/18 11:08:09;;;;;;;;;;;;;;;19.50;35.82;100990.34;4973754;28;19914;-84
2022/10/18 11:10:37;;;;;;;;;;;;;;;19.06;35.66;100981.91;4973819;28;19914;-83
2022/10/18 11:13:23;;;;;;;;;;;;;;;19.13;36.11;100977.25;4973512;28;19918;-83
2022/10/18 11:15:51;;;;;;;;;;;;;;;19.36;34.29;100968.53;4973217;28;19969;-83
2022/10/18 11:18:45;;;;;;;;;;;;;;;19.26;33.91;100964.38;4973341;28;19913;-83
2022/10/18 11:21:16;;;;;;;;;;;;;;;19.46;33.93;100959.28;4964307;28;19910;-84
2022/10/18 11:23:42;;;;;;;;;;;;;;;19.25;34.75;100952.81;4973463;28;19918;-83
2022/10/18 11:26:10;;;;;;;;;;;;;;;19.55;33.91;100941.19;4972185;28;19918;-83
2022/10/18 11:28:36;;;;;;;;;;;;;;;19.50;33.90;100934.16;4972555;28;19918;-83
2022/10/18 11:31:01;;;;;;;;;;;;;;;19.48;33.42;100940.50;4973277;28;20365;-83
2022/10/18 11:33:35;;;;;;;;;;;;;;;19.58;33.10;100925.03;4973136;28;19914;-83
2022/10/18 11:36:06;;;;;;;;;;;;;;;19.44;32.51;100923.66;4973134;28;20380;-84
2022/10/18 11:38:31;;;;;;;;;;;;;;;19.41;32.35;100914.88;4973312;28;19918;-84
2022/10/18 11:40:57;;;;;;;;;;;;;;;19.67;30.93;100903.31;4973484;28;20008;-83
2022/10/18 11:43:22;;;;;;;;;;;;;;;19.67;30.59;100914.88;4972915;28;19914;-83
2022/10/18 11:45:59;;;;;;;;;;;;;;;19.83;30.74;100907.25;4972645;28;19930;-82
2022/10/18 11:48:42;;;;;;;;;;;;;;;19.60;31.07;100907.09;4973073;28;19921;-83
2022/10/18 11:51:26;;;;;;;;;;;;;;;19.51;28.73;100902.94;4972785;28;19914;-83
2022/10/18 11:53:51;;;;;;;;;;;;;;;19.87;28.20;100888.41;4955410;28;20420;-83
2022/10/18 11:56:28;;;;;;;;;;;;;;;19.83;27.79;100885.84;4972853;28;20009;-82
2022/10/18 11:58:53;;;;;;;;;;;;;;;19.78;28.13;100879.75;4973111;28;19914;-83
2022/10/18 12:01:28;;;;;;;;;;;;;;;19.89;26.92;100876.69;4972701;28;19914;-83
2022/10/18 12:03:58;;;;;;;;;;;;;;;20.10;26.96;100872.38;4972751;28;19914;-82
2022/10/18 12:06:26;;;;;;;;;;;;;;;20.11;26.38;100871.47;4972493;28;20404;-83
2022/10/18 12:08:54;;;;;;;;;;;;;;;20.06;25.50;100861.84;4972787;28;19921;-83
2022/10/18 12:11:23;;;;;;;;;;;;;;;20.03;26.02;100862.81;4955437;28;20369;-82
2022/10/18 12:13:58;;;;;;;;;;;;;;;20.24;26.57;100860.31;4972429;28;20020;-84
2022/10/18 12:16:26;;;;;;;;;;;;;;;20.00;24.70;100852.22;4973005;28;19921;-83
2022/10/18 12:19:02;;;;;;;;;;;;;;;20.43;24.50;100844.41;4972352;28;19918;-83
2022/10/18 12:21:30;;;;;;;;;;;;;;;20.44;24.95;100844.34;4972702;28;19953;-83
2022/10/18 12:24:02;;;;;;;;;;;;;;;20.38;24.94;100842.78;4955257;28;19920;-84
2022/10/18 12:26:28;;;;;;;;;;;;;;;20.65;23.07;100839.13;4972610;28;19914;-84
2022/10/18 12:29:02;;;;;;;;;;;;;;;20.44;21.80;100833.63;4972241;28;20469;-83
2022/10/18 12:31:32;;;;;;;;;;;;;;;20.71;22.99;100838.88;4972295;28;20012;-84
2022/10/18 12:34:00;;;;;;;;;;;;;;;20.70;22.01;100831.81;4972685;28;19922;-83
2022/10/18 12:36:44;;;;;;;;;;;;;;;20.61;22.37;100826.75;4972326;28;19945;-83
2022/10/18 12:39:23;;;;;;;;;;;;;;;20.67;23.34;100815.84;4972511;28;20017;-83
2022/10/18 12:41:52;;;;;;;;;;;;;;;20.51;23.40;100813.72;4970911;28;20349;-84
2022/10/18 12:44:21;;;;;;;;;;;;;;;20.70;23.83;100818.41;4972326;28;20004;-83
2022/10/18 12:46:56;;;;;;;;;;;;;;;20.70;22.94;100818.41;4972465;28;20495;-83